Green Grove, Wisconsin
Current Conditions -  °F | °C
As of 12:55 AM on Monday 22 Dec 2014 (Local Time) from KMDZ Reporting Station
Haze Haze  
Wind Chill: 23°   Ceiling: 300
Heat Index: 32°   Visibility: 2.5mi
Dew Point: 32°   Wind: 12mph
Humidity: 99%   Direction: 160°SSE
Pressure: 29.82"   Gusts: NA
Location:  44.9782°N, 90.5368°W
Report Text: KMDZ 220655Z AUTO 16010KT 2 1/2SM BR OVC003 00/00 A2982 RMK AO2 T00020000
Loading
Personal Weather Stations






























Interactive Weather Map New forecast layout! Learn more

10-Day Weather Forecast

Advertisements
Track Severe Weather on mobile